Time;durP1;ratioP1;P1;durP2;ratioP2;P2;SDS_P1;SDS_P2;PMS_P1;PMS_P2;Temp;Humidity;BMP_temperature;BMP_pressure;BME280_temperature;BME280_humidity;BME280_pressure;Samples;Min_cycle;Max_cycle;Signal;HPM_P1;HPM_P2
2024/01/09 00:02:17;;;;;;;5.72;2.75;;;-2.30;99.90;;;;;;4880305;29;20136;-80
2024/01/09 00:04:42;;;;;;;6.57;2.92;;;-2.40;99.90;;;;;;4865468;29;20052;-80
2024/01/09 00:07:08;;;;;;;7.07;2.40;;;-2.40;99.90;;;;;;4876264;29;20106;-80
2024/01/09 00:09:34;;;;;;;9.25;3.10;;;-2.40;99.90;;;;;;4874568;29;20061;-80
2024/01/09 00:12:00;;;;;;;7.50;2.90;;;-2.40;99.90;;;;;;4878098;29;20057;-80
2024/01/09 00:14:26;;;;;;;8.73;3.38;;;-2.40;99.90;;;;;;4877121;29;20041;-80
2024/01/09 00:16:52;;;;;;;5.47;2.90;;;-2.40;99.90;;;;;;4879920;29;20053;-79
2024/01/09 00:19:17;;;;;;;8.52;3.05;;;-2.40;99.90;;;;;;4878006;29;20078;-80
2024/01/09 00:21:46;;;;;;;5.25;2.67;;;-2.40;99.90;;;;;;4859973;29;20456;-80
2024/01/09 00:24:12;;;;;;;5.70;2.75;;;-2.50;99.90;;;;;;4881922;29;20073;-80
2024/01/09 00:26:44;;;;;;;8.15;3.22;;;-2.50;99.90;;;;;;4877656;29;20120;-80
2024/01/09 00:29:10;;;;;;;6.47;2.90;;;-2.50;99.90;;;;;;4873330;29;20056;-80
2024/01/09 00:31:36;;;;;;;5.00;2.75;;;-2.50;99.90;;;;;;4881768;29;20048;-80
2024/01/09 00:34:01;;;;;;;6.18;2.60;;;-2.60;99.90;;;;;;4879828;29;20041;-80
2024/01/09 00:36:27;;;;;;;6.57;2.30;;;-2.60;99.90;;;;;;4887044;29;21703;-80
2024/01/09 00:38:53;;;;;;;5.28;2.75;;;-2.60;99.90;;;;;;4860299;29;20121;-80
2024/01/09 00:41:19;;;;;;;7.93;2.83;;;-2.60;99.90;;;;;;4885676;29;20571;-80
2024/01/09 00:43:44;;;;;;;6.57;2.65;;;-2.60;99.90;;;;;;4892112;29;20405;-80
2024/01/09 00:46:10;;;;;;;4.63;2.22;;;-2.60;99.90;;;;;;4882652;29;20052;-79
2024/01/09 00:48:36;;;;;;;5.00;2.45;;;-2.60;99.90;;;;;;4856338;29;20175;-80
2024/01/09 00:51:01;;;;;;;5.65;2.42;;;-2.70;99.90;;;;;;4866351;29;20060;-80
2024/01/09 00:53:27;;;;;;;6.25;3.03;;;-2.70;99.90;;;;;;4850257;29;20050;-80
2024/01/09 00:55:52;;;;;;;8.20;2.70;;;-2.70;99.90;;;;;;4883339;29;20051;-80
2024/01/09 00:58:18;;;;;;;6.15;2.58;;;-2.70;99.90;;;;;;4860986;29;20049;-80
2024/01/09 01:00:44;;;;;;;6.40;2.42;;;-2.70;99.90;;;;;;4875405;29;20055;-79
2024/01/09 01:03:10;;;;;;;5.43;2.80;;;-2.70;99.90;;;;;;4891053;29;20059;-79
2024/01/09 01:05:35;;;;;;;6.53;2.95;;;-2.70;99.90;;;;;;4879112;29;20044;-79
2024/01/09 01:08:01;;;;;;;5.85;2.88;;;-2.70;99.90;;;;;;4864202;29;20480;-80
2024/01/09 01:10:26;;;;;;;6.05;2.58;;;-2.70;99.90;;;;;;4873217;29;20057;-79
2024/01/09 01:12:52;;;;;;;7.35;3.05;;;-2.70;99.90;;;;;;4868656;29;20044;-79
2024/01/09 01:15:18;;;;;;;5.47;2.28;;;-2.70;99.90;;;;;;4858684;29;20044;-80
2024/01/09 01:17:44;;;;;;;6.68;2.90;;;-2.80;99.90;;;;;;4870745;29;20057;-80
2024/01/09 01:20:10;;;;;;;5.30;2.50;;;-2.80;99.90;;;;;;4859280;29;20057;-79
2024/01/09 01:22:35;;;;;;;7.45;2.50;;;-2.80;99.90;;;;;;4861906;29;20041;-80
2024/01/09 01:25:02;;;;;;;4.78;2.22;;;-2.80;99.90;;;;;;4858087;29;20047;-80
2024/01/09 01:27:27;;;;;;;6.45;2.80;;;-2.80;99.90;;;;;;4868943;29;20494;-80
2024/01/09 01:29:53;;;;;;;4.95;2.42;;;-2.80;99.90;;;;;;4850116;29;20053;-79
2024/01/09 01:32:18;;;;;;;5.00;2.40;;;-2.80;99.90;;;;;;4873571;29;20041;-79
2024/01/09 01:34:45;;;;;;;4.28;2.53;;;-2.90;99.90;;;;;;4847035;29;20042;-79
2024/01/09 01:37:10;;;;;;;4.45;2.22;;;-2.90;99.90;;;;;;4855549;29;20128;-79
2024/01/09 01:39:36;;;;;;;5.47;2.28;;;-2.90;99.90;;;;;;4854239;29;20128;-79
2024/01/09 01:42:02;;;;;;;7.80;2.55;;;-2.90;99.90;;;;;;4880940;29;20049;-80
2024/01/09 01:44:28;;;;;;;6.75;2.70;;;-3.00;99.90;;;;;;4889869;29;20040;-80
2024/01/09 01:46:54;;;;;;;7.07;2.58;;;-3.00;99.90;;;;;;4863631;29;20041;-79
2024/01/09 01:49:21;;;;;;;6.15;2.65;;;-3.00;99.90;;;;;;4861199;29;20055;-80
2024/01/09 01:51:49;;;;;;;7.53;2.63;;;-3.00;99.90;;;;;;4862801;29;20045;-80
2024/01/09 01:54:15;;;;;;;5.65;2.70;;;-3.00;99.90;;;;;;4855829;29;20529;-79
2024/01/09 01:56:42;;;;;;;8.18;2.97;;;-3.00;99.90;;;;;;4881497;29;20109;-79
2024/01/09 01:59:12;;;;;;;5.43;1.90;;;-3.10;99.90;;;;;;4858555;29;20057;-79
2024/01/09 02:01:38;;;;;;;6.20;2.90;;;-3.10;99.90;;;;;;4856779;29;20046;-79
2024/01/09 02:04:05;;;;;;;4.38;2.40;;;-3.10;99.90;;;;;;4872170;29;20046;-79
2024/01/09 02:06:31;;;;;;;7.13;3.10;;;-3.10;99.90;;;;;;4870652;29;20120;-80
2024/01/09 02:08:56;;;;;;;5.53;2.65;;;-3.20;99.90;;;;;;4865477;29;20045;-79
2024/01/09 02:11:22;;;;;;;5.13;2.47;;;-3.20;99.90;;;;;;4860769;29;20044;-80
2024/01/09 02:13:48;;;;;;;5.47;2.63;;;-3.20;99.90;;;;;;4875827;29;20545;-79
2024/01/09 02:16:14;;;;;;;5.47;2.60;;;-3.20;99.90;;;;;;4850243;29;20049;-80
2024/01/09 02:18:40;;;;;;;5.53;2.58;;;-3.20;99.90;;;;;;4858721;29;20049;-80
2024/01/09 02:21:05;;;;;;;3.75;1.95;;;-3.20;99.90;;;;;;4853220;29;20067;-79
2024/01/09 02:23:31;;;;;;;5.50;2.33;;;-3.30;99.90;;;;;;4853129;29;20494;-80
2024/01/09 02:25:58;;;;;;;6.95;2.13;;;-3.30;99.90;;;;;;4886866;29;20055;-80
2024/01/09 02:28:27;;;;;;;5.78;2.25;;;-3.20;99.90;;;;;;4853434;29;20433;-79
2024/01/09 02:30:55;;;;;;;5.68;2.55;;;-3.30;99.90;;;;;;4860424;29;20452;-80
2024/01/09 02:33:21;;;;;;;11.18;2.50;;;-3.30;99.90;;;;;;4864108;29;20071;-79
2024/01/09 02:35:46;;;;;;;7.75;2.47;;;-3.30;99.90;;;;;;4812421;29;1086990;-79
2024/01/09 02:38:12;;;;;;;6.57;2.75;;;-3.30;99.90;;;;;;4855716;29;20056;-80
2024/01/09 02:40:38;;;;;;;5.00;2.47;;;-3.40;99.90;;;;;;4855481;29;20083;-79
2024/01/09 02:43:05;;;;;;;5.13;2.53;;;-3.40;99.90;;;;;;4870525;29;20055;-78
2024/01/09 02:45:30;;;;;;;6.07;2.60;;;-3.40;99.90;;;;;;4853586;29;20093;-79
2024/01/09 02:47:56;;;;;;;5.35;2.63;;;-3.40;99.90;;;;;;4854825;29;20041;-79
2024/01/09 02:50:22;;;;;;;5.53;2.90;;;-3.40;99.90;;;;;;4865181;29;20049;-79
2024/01/09 02:52:48;;;;;;;6.10;2.47;;;-3.40;99.90;;;;;;4892680;29;20041;-79
2024/01/09 02:55:13;;;;;;;6.30;2.42;;;-3.40;99.90;;;;;;4857806;29;20036;-79
2024/01/09 02:57:40;;;;;;;4.97;2.58;;;-3.40;99.90;;;;;;4856300;29;20558;-79
2024/01/09 03:00:10;;;;;;;7.22;2.22;;;-3.40;99.90;;;;;;4865181;29;20044;-80
2024/01/09 03:02:36;;;;;;;6.28;2.65;;;-3.40;99.90;;;;;;4857809;29;20041;-79
2024/01/09 03:05:06;;;;;;;6.18;2.67;;;-3.40;99.90;;;;;;4862070;29;20128;-80
2024/01/09 03:07:33;;;;;;;5.30;2.50;;;-3.40;99.90;;;;;;4882463;29;20080;-79
2024/01/09 03:09:58;;;;;;;6.78;2.50;;;-3.40;99.90;;;;;;4858501;29;20101;-79
2024/01/09 03:12:24;;;;;;;5.82;2.75;;;-3.50;99.90;;;;;;4875493;29;20049;-79
2024/01/09 03:14:49;;;;;;;4.88;2.38;;;-3.50;99.90;;;;;;4854691;29;20113;-79
2024/01/09 03:17:15;;;;;;;8.10;2.67;;;-3.50;99.90;;;;;;4889188;29;20429;-79
2024/01/09 03:19:43;;;;;;;5.30;2.22;;;-3.50;99.90;;;;;;4859813;29;20056;-79
2024/01/09 03:22:08;;;;;;;;;;;-3.50;99.90;;;;;;4890321;29;20085;-79
2024/01/09 03:24:34;;;;;;;5.03;2.35;;;-3.50;99.90;;;;;;4874727;29;19927;-79
2024/01/09 03:27:00;;;;;;;5.57;2.45;;;-3.50;99.90;;;;;;4884234;29;20052;-79
2024/01/09 03:29:25;;;;;;;5.22;2.65;;;-3.50;99.90;;;;;;4868246;29;20084;-79
2024/01/09 03:31:51;;;;;;;8.52;2.63;;;-3.60;99.90;;;;;;4876503;29;20554;-79
2024/01/09 03:34:17;;;;;;;5.97;2.72;;;-3.60;99.90;;;;;;4869003;29;20104;-80
2024/01/09 03:36:46;;;;;;;6.50;3.95;;;-3.60;99.90;;;;;;4850215;29;20064;-80
2024/01/09 03:39:14;;;;;;;4.55;2.00;;;-3.60;99.90;;;;;;4860799;29;20049;-79
2024/01/09 03:41:41;;;;;;;4.95;2.30;;;-3.70;99.90;;;;;;4860222;29;20103;-79
2024/01/09 03:44:07;;;;;;;5.60;2.50;;;-3.70;99.90;;;;;;4858602;29;21819;-80
2024/01/09 03:46:32;;;;;;;7.22;2.55;;;-3.70;99.90;;;;;;4860180;29;20049;-79
2024/01/09 03:48:58;;;;;;;7.25;2.58;;;-3.70;99.90;;;;;;4899179;29;20555;-80
2024/01/09 03:51:24;;;;;;;3.53;2.20;;;-3.70;99.90;;;;;;4894102;29;20041;-80
2024/01/09 03:53:49;;;;;;;5.38;2.60;;;-3.70;99.90;;;;;;4874455;29;20565;-79
2024/01/09 03:56:15;;;;;;;4.25;2.03;;;-3.80;99.90;;;;;;4860536;29;20044;-80
2024/01/09 03:58:40;;;;;;;3.75;1.80;;;-3.80;99.90;;;;;;4852081;29;20136;-79
2024/01/09 04:01:06;;;;;;;6.75;2.70;;;-3.80;99.90;;;;;;4851750;29;20408;-79
2024/01/09 04:03:32;;;;;;;5.00;2.67;;;-3.80;99.90;;;;;;4867781;29;20044;-80
2024/01/09 04:05:57;;;;;;;5.82;2.40;;;-3.80;99.90;;;;;;4896304;29;20052;-79
2024/01/09 04:08:23;;;;;;;5.70;2.97;;;-3.80;99.90;;;;;;4878662;29;20048;-79
2024/01/09 04:10:48;;;;;;;6.38;3.03;;;-3.90;99.90;;;;;;4867623;29;20057;-79
2024/01/09 04:13:14;;;;;;;5.32;2.53;;;-3.90;99.90;;;;;;4867268;29;20045;-79
2024/01/09 04:15:40;;;;;;;4.93;2.30;;;-3.90;99.90;;;;;;4860687;29;20049;-80
2024/01/09 04:18:06;;;;;;;7.32;3.00;;;-4.00;99.90;;;;;;4854750;29;20429;-79
2024/01/09 04:20:32;;;;;;;6.43;2.45;;;-4.00;99.90;;;;;;4872531;29;20059;-80
2024/01/09 04:22:57;;;;;;;5.15;2.70;;;-4.00;99.90;;;;;;4875333;29;20041;-80
2024/01/09 04:25:23;;;;;;;5.70;3.08;;;-4.00;99.90;;;;;;4856731;29;20045;-80
2024/01/09 04:27:48;;;;;;;5.80;2.50;;;-4.00;99.90;;;;;;4890445;29;20104;-80
2024/01/09 04:30:14;;;;;;;8.75;2.95;;;-4.00;99.90;;;;;;4858294;29;20049;-79
2024/01/09 04:32:40;;;;;;;6.20;2.50;;;-4.00;99.90;;;;;;4852201;29;20056;-80
2024/01/09 04:35:06;;;;;;;7.28;3.38;;;-4.00;99.90;;;;;;4855302;29;20057;-80
2024/01/09 04:37:31;;;;;;;5.47;2.90;;;-4.10;99.90;;;;;;4857355;29;20112;-80
2024/01/09 04:39:57;;;;;;;6.32;2.83;;;-4.10;99.90;;;;;;4882987;29;20047;-80
2024/01/09 04:42:22;;;;;;;6.03;2.72;;;-4.10;99.90;;;;;;4891110;29;20043;-80
2024/01/09 04:44:48;;;;;;;6.50;2.80;;;-4.10;99.90;;;;;;4881192;29;20275;-80
2024/01/09 04:47:15;;;;;;;6.38;2.85;;;-4.10;99.90;;;;;;4861525;29;20120;-80
2024/01/09 04:49:44;;;;;;;6.35;2.58;;;-4.10;99.90;;;;;;4886026;29;20080;-80
2024/01/09 04:52:10;;;;;;;5.25;2.40;;;-4.10;99.90;;;;;;4869782;29;20049;-80
2024/01/09 04:54:36;;;;;;;7.90;2.80;;;-4.10;99.90;;;;;;4855089;29;20579;-79
2024/01/09 04:57:02;;;;;;;8.40;2.90;;;-4.10;99.90;;;;;;4893277;29;20575;-80
2024/01/09 04:59:27;;;;;;;6.13;2.95;;;-4.10;99.90;;;;;;4887537;29;20163;-79
2024/01/09 05:01:53;;;;;;;7.78;3.53;;;-4.10;99.90;;;;;;4878750;29;20057;-80
2024/01/09 05:04:19;;;;;;;6.55;3.30;;;-4.10;99.90;;;;;;4860176;29;20040;-80
2024/01/09 05:06:44;;;;;;;5.80;2.63;;;-4.10;99.90;;;;;;4855316;29;20483;-80
2024/01/09 05:09:11;;;;;;;6.68;2.60;;;-4.10;99.90;;;;;;4860087;29;20052;-80
2024/01/09 05:11:37;;;;;;;6.47;2.87;;;-4.10;99.90;;;;;;4857858;29;20072;-80
2024/01/09 05:14:03;;;;;;;8.15;3.03;;;-4.10;99.90;;;;;;4853982;29;20333;-80
2024/01/09 05:16:28;;;;;;;6.95;3.28;;;-4.10;99.90;;;;;;4854943;29;20048;-80
2024/01/09 05:18:54;;;;;;;6.18;2.80;;;-4.10;99.90;;;;;;4862381;29;20060;-80
2024/01/09 05:21:20;;;;;;;6.70;2.97;;;-4.10;99.90;;;;;;4857792;29;20044;-80
2024/01/09 05:23:46;;;;;;;5.75;2.75;;;-4.10;99.90;;;;;;4874370;29;20053;-81
2024/01/09 05:26:11;;;;;;;7.75;3.22;;;-4.20;99.90;;;;;;4891349;29;20061;-80
2024/01/09 05:28:37;;;;;;;7.38;3.28;;;-4.20;99.90;;;;;;4887263;29;20143;-80
2024/01/09 05:31:03;;;;;;;7.22;3.05;;;-4.20;99.90;;;;;;4885256;29;20412;-80
2024/01/09 05:33:28;;;;;;;6.75;2.53;;;-4.30;99.90;;;;;;4893194;29;20044;-80
2024/01/09 05:35:54;;;;;;;8.00;2.97;;;-4.30;99.90;;;;;;4888466;29;20583;-80
2024/01/09 05:38:20;;;;;;;5.55;2.60;;;-4.30;99.90;;;;;;4857821;29;20099;-80
2024/01/09 05:40:46;;;;;;;8.05;3.13;;;-4.40;99.90;;;;;;4888113;29;20113;-80
2024/01/09 05:43:12;;;;;;;7.60;3.13;;;-4.40;99.90;;;;;;4878520;29;20561;-80
2024/01/09 05:45:38;;;;;;;6.00;2.63;;;-4.40;99.90;;;;;;4864810;29;20048;-81
2024/01/09 05:48:04;;;;;;;8.20;3.00;;;-4.50;99.90;;;;;;4848314;29;20047;-81
2024/01/09 05:50:30;;;;;;;6.35;3.15;;;-4.50;99.90;;;;;;4845510;29;20069;-81
2024/01/09 05:52:55;;;;;;;6.70;3.17;;;-4.50;99.90;;;;;;4852854;29;20073;-81
2024/01/09 05:55:21;;;;;;;7.25;3.10;;;-4.50;99.90;;;;;;4874210;29;20148;-80
2024/01/09 05:57:47;;;;;;;7.15;3.03;;;-4.50;99.90;;;;;;4856501;29;20132;-81
2024/01/09 06:00:13;;;;;;;5.55;2.88;;;-4.50;99.90;;;;;;4856154;29;20041;-81
2024/01/09 06:02:38;;;;;;;8.30;3.42;;;-4.60;99.90;;;;;;4861015;29;20139;-80
2024/01/09 06:05:04;;;;;;;8.98;3.17;;;-4.60;99.90;;;;;;4886652;29;20128;-81
2024/01/09 06:07:30;;;;;;;6.07;2.83;;;-4.60;99.90;;;;;;4867574;29;20063;-80
2024/01/09 06:09:56;;;;;;;8.15;3.03;;;-4.60;99.90;;;;;;4856714;29;20634;-80
2024/01/09 06:12:21;;;;;;;7.07;2.90;;;-4.60;99.90;;;;;;4883776;29;20044;-80
2024/01/09 06:14:47;;;;;;;6.57;3.05;;;-4.70;99.90;;;;;;4859893;29;20097;-80
2024/01/09 06:17:13;;;;;;;5.38;2.60;;;-4.70;99.90;;;;;;4892084;29;20057;-80
2024/01/09 06:19:38;;;;;;;6.13;3.05;;;-4.70;99.90;;;;;;4878824;29;20048;-80
2024/01/09 06:22:04;;;;;;;4.75;2.63;;;-4.70;99.90;;;;;;4853606;29;20053;-80
2024/01/09 06:24:30;;;;;;;8.20;3.15;;;-4.70;99.90;;;;;;4878373;29;20486;-80
2024/01/09 06:26:55;;;;;;;6.20;2.65;;;-4.70;99.90;;;;;;4861617;29;20055;-81
2024/01/09 06:29:22;;;;;;;7.40;2.78;;;-4.70;99.90;;;;;;4863911;29;20572;-78
2024/01/09 06:31:48;;;;;;;5.15;2.50;;;-4.60;99.90;;;;;;4859424;29;20057;-79
2024/01/09 06:34:14;;;;;;;9.93;2.85;;;-4.70;99.90;;;;;;4866335;29;20099;-78
2024/01/09 06:36:40;;;;;;;7.90;2.80;;;-4.60;99.90;;;;;;4852693;29;20064;-78
2024/01/09 06:39:05;;;;;;;6.47;2.58;;;-4.70;99.90;;;;;;4858874;29;20041;-78
2024/01/09 06:41:31;;;;;;;7.50;2.72;;;-4.70;99.90;;;;;;4888331;29;20132;-78
2024/01/09 06:43:57;;;;;;;5.63;2.90;;;-4.70;99.90;;;;;;4860371;29;20084;-78
2024/01/09 06:46:22;;;;;;;4.82;2.40;;;-4.70;99.90;;;;;;4875070;29;20836;-78
2024/01/09 06:48:48;;;;;;;9.30;3.85;;;-4.70;99.90;;;;;;4848666;29;20053;-81
2024/01/09 06:51:14;;;;;;;6.05;3.20;;;-4.70;99.90;;;;;;4846424;29;20387;-83
2024/01/09 06:53:39;;;;;;;6.88;2.75;;;-4.70;99.90;;;;;;4871662;29;20048;-82
2024/01/09 06:56:06;;;;;;;6.70;2.85;;;-4.70;99.90;;;;;;4884174;29;20045;-82
2024/01/09 06:58:31;;;;;;;6.43;3.17;;;-4.70;99.90;;;;;;4884316;29;20041;-82
2024/01/09 07:00:57;;;;;;;7.43;3.13;;;-4.70;99.90;;;;;;4888158;29;20055;-84
2024/01/09 07:03:24;;;;;;;6.82;2.70;;;-4.70;99.90;;;;;;4856970;29;20135;-83
2024/01/09 07:05:50;;;;;;;6.47;2.50;;;-4.70;99.90;;;;;;4858558;29;20057;-84
2024/01/09 07:08:15;;;;;;;6.80;2.70;;;-4.70;99.90;;;;;;4852602;29;21087;-85
2024/01/09 07:10:41;;;;;;;8.55;2.97;;;-4.70;99.90;;;;;;4881753;29;20057;-86
2024/01/09 07:13:07;;;;;;;9.00;2.88;;;-4.70;99.90;;;;;;4869075;29;20072;-86
2024/01/09 07:15:32;;;;;;;7.07;2.85;;;-4.70;99.90;;;;;;4873323;29;20796;-83
2024/01/09 07:17:58;;;;;;;6.75;3.10;;;-4.70;99.90;;;;;;4870776;29;20588;-82
2024/01/09 07:20:24;;;;;;;6.93;3.08;;;-4.80;99.90;;;;;;4853559;29;20037;-83
2024/01/09 07:22:49;;;;;;;6.80;2.80;;;-4.70;99.90;;;;;;4875294;29;20094;-83
2024/01/09 07:25:15;;;;;;;5.97;2.67;;;-4.80;99.90;;;;;;4887843;29;20049;-83
2024/01/09 07:27:41;;;;;;;7.22;3.30;;;-4.80;99.90;;;;;;4857460;29;20115;-83
2024/01/09 07:30:08;;;;;;;6.75;2.92;;;-4.80;99.90;;;;;;4869359;29;20049;-83
2024/01/09 07:32:33;;;;;;;6.60;2.40;;;-4.80;99.90;;;;;;4848703;29;20425;-83
2024/01/09 07:34:59;;;;;;;6.93;2.65;;;-4.80;99.90;;;;;;4863004;29;20057;-84
2024/01/09 07:37:25;;;;;;;6.22;2.90;;;-4.80;99.90;;;;;;4854085;29;20056;-84
2024/01/09 07:39:51;;;;;;;6.72;2.78;;;-4.80;99.90;;;;;;4885387;29;20674;-84
2024/01/09 07:42:17;;;;;;;7.13;2.53;;;-4.90;99.90;;;;;;4880828;29;20049;-85
2024/01/09 07:44:42;;;;;;;6.95;2.95;;;-4.80;99.90;;;;;;4852630;29;20102;-84
2024/01/09 07:47:10;;;;;;;7.15;2.63;;;-4.80;99.90;;;;;;4861453;29;20051;-84
2024/01/09 07:49:38;;;;;;;7.38;3.17;;;-4.80;99.90;;;;;;4860148;29;20114;-84
2024/01/09 07:52:04;;;;;;;8.23;2.90;;;-4.80;99.90;;;;;;4864201;29;20075;-84
2024/01/09 07:54:30;;;;;;;7.57;4.07;;;-4.80;99.90;;;;;;4859844;29;20137;-84
2024/01/09 07:56:56;;;;;;;4.57;2.45;;;-4.80;99.90;;;;;;4856795;29;20620;-84
2024/01/09 07:59:22;;;;;;;7.03;3.05;;;-4.90;99.90;;;;;;4891265;29;20041;-83
2024/01/09 08:01:54;;;;;;;7.72;2.90;;;-4.80;99.90;;;;;;4860532;29;21565;-84
2024/01/09 08:04:23;;;;;;;8.82;3.15;;;-4.80;99.90;;;;;;4882207;29;20060;-83
2024/01/09 08:06:52;;;;;;;5.60;2.90;;;-4.80;99.90;;;;;;4865774;29;20102;-83
2024/01/09 08:09:18;;;;;;;7.57;3.20;;;-4.80;99.90;;;;;;4892620;29;20093;-85
2024/01/09 08:11:45;;;;;;;9.02;3.17;;;-4.80;99.90;;;;;;4879040;29;20054;-84
2024/01/09 08:14:12;;;;;;;6.80;2.80;;;-4.80;99.90;;;;;;4873915;29;20072;-87
2024/01/09 08:16:38;;;;;;;7.10;2.63;;;-4.80;99.90;;;;;;4873563;29;20496;-88
2024/01/09 08:19:06;;;;;;;6.43;2.50;;;-4.70;99.90;;;;;;4886025;29;20056;-87
2024/01/09 08:21:32;;;;;;;6.68;2.90;;;-4.70;99.90;;;;;;4857516;29;20054;-83
2024/01/09 08:23:58;;;;;;;7.90;3.30;;;-4.70;99.90;;;;;;4873799;29;20049;-82
2024/01/09 08:26:23;;;;;;;6.32;2.78;;;-4.70;99.90;;;;;;4871697;29;20034;-79
2024/01/09 08:28:49;;;;;;;6.18;2.92;;;-4.70;99.90;;;;;;4849305;29;20060;-76
2024/01/09 08:31:16;;;;;;;6.28;3.10;;;-4.70;99.90;;;;;;4856339;29;20160;-76
2024/01/09 08:33:41;;;;;;;6.83;2.87;;;-4.70;99.90;;;;;;4866148;29;20045;-76
2024/01/09 08:36:07;;;;;;;6.47;3.00;;;-4.60;99.90;;;;;;4864723;29;20405;-80
2024/01/09 08:38:33;;;;;;;6.53;2.80;;;-4.60;99.90;;;;;;4864675;29;20059;-78
2024/01/09 08:40:58;;;;;;;6.53;3.22;;;-4.60;99.90;;;;;;4877606;29;20067;-76
2024/01/09 08:43:24;;;;;;;6.40;2.47;;;-4.60;99.90;;;;;;4865179;29;20044;-74
2024/01/09 08:45:50;;;;;;;6.25;3.00;;;-4.50;99.90;;;;;;4884390;29;20468;-73
2024/01/09 08:48:18;;;;;;;9.13;3.47;;;-4.50;99.90;;;;;;4851673;29;20376;-74
2024/01/09 08:50:44;;;;;;;13.32;3.08;;;-4.50;99.90;;;;;;4851172;29;20060;-76
2024/01/09 08:53:10;;;;;;;5.57;2.85;;;-4.50;99.90;;;;;;4842655;29;20438;-75
2024/01/09 08:55:36;;;;;;;9.70;3.45;;;-4.40;99.90;;;;;;4849696;29;20120;-75
2024/01/09 08:58:02;;;;;;;7.47;3.00;;;-4.40;99.90;;;;;;4848889;29;20691;-75
2024/01/09 09:00:28;;;;;;;7.70;2.97;;;-4.40;99.90;;;;;;4845264;29;20054;-75
2024/01/09 09:02:53;;;;;;;6.97;3.42;;;-4.30;99.90;;;;;;4868924;29;20693;-75
2024/01/09 09:05:22;;;;;;;6.82;2.72;;;-4.30;99.90;;;;;;4860539;29;20049;-75
2024/01/09 09:07:47;;;;;;;9.13;3.13;;;-4.20;99.90;;;;;;4876439;29;20057;-74
2024/01/09 09:10:13;;;;;;;6.88;2.70;;;-4.20;99.90;;;;;;4851028;29;20370;-76
2024/01/09 09:12:39;;;;;;;6.70;3.33;;;-4.20;99.90;;;;;;4851826;29;20056;-80
2024/01/09 09:15:05;;;;;;;7.43;3.05;;;-4.20;99.90;;;;;;4863868;29;20064;-76
2024/01/09 09:17:33;;;;;;;5.18;2.75;;;-4.10;99.90;;;;;;4865848;29;20056;-77
2024/01/09 09:19:59;;;;;;;5.50;2.78;;;-4.20;99.90;;;;;;4872712;29;20053;-78
2024/01/09 09:22:25;;;;;;;6.18;2.97;;;-4.10;99.90;;;;;;4843698;29;20056;-75
2024/01/09 09:24:55;;;;;;;7.80;2.72;;;-4.10;99.90;;;;;;4872042;29;20051;-79
2024/01/09 09:27:21;;;;;;;7.78;3.13;;;-4.10;99.90;;;;;;4868833;29;20184;-79
2024/01/09 09:29:46;;;;;;;6.03;3.10;;;-4.10;99.90;;;;;;4856095;29;20041;-79
2024/01/09 09:32:12;;;;;;;7.43;2.83;;;-4.10;99.90;;;;;;4866761;29;20752;-78
2024/01/09 09:34:42;;;;;;;8.10;2.40;;;-4.00;99.90;;;;;;4875355;29;20796;-76
2024/01/09 09:37:08;;;;;;;6.82;2.78;;;-4.00;99.90;;;;;;4847998;29;20413;-75
2024/01/09 09:39:34;;;;;;;6.78;2.97;;;-4.00;99.90;;;;;;4871417;29;20045;-78
2024/01/09 09:42:00;;;;;;;12.65;2.67;;;-3.90;99.90;;;;;;4871569;29;20049;-76
2024/01/09 09:44:27;;;;;;;7.68;3.80;;;-3.90;99.90;;;;;;4859615;29;20041;-75
2024/01/09 09:46:54;;;;;;;6.78;3.20;;;-3.90;99.90;;;;;;4846674;29;20061;-76
2024/01/09 09:49:23;;;;;;;6.13;2.75;;;-3.80;99.90;;;;;;4858659;29;20052;-78
2024/01/09 09:51:54;;;;;;;4.57;2.22;;;-3.80;99.90;;;;;;4871716;29;20037;-83
2024/01/09 09:54:22;;;;;;;10.02;4.00;;;-3.80;99.90;;;;;;4844175;29;20057;-76
2024/01/09 09:56:47;;;;;;;8.73;2.95;;;-3.80;99.90;;;;;;4866511;29;20553;-78
2024/01/09 09:59:14;;;;;;;4.55;2.22;;;-3.70;99.90;;;;;;4861343;29;20037;-75
2024/01/09 10:01:41;;;;;;;7.83;2.70;;;-3.70;99.90;;;;;;4870390;29;20075;-76
2024/01/09 10:04:24;;;;;;;5.95;2.45;;;-3.60;99.90;;;;;;4864663;29;20116;-75
2024/01/09 10:06:52;;;;;;;8.52;2.67;;;-3.60;99.90;;;;;;4847988;29;20065;-75
2024/01/09 10:09:19;;;;;;;7.97;3.20;;;-3.50;99.90;;;;;;4852145;29;20045;-75
2024/01/09 10:11:49;;;;;;;7.35;3.03;;;-3.50;99.90;;;;;;4871860;29;20056;-74
2024/01/09 10:14:14;;;;;;;6.05;2.70;;;-3.40;99.90;;;;;;4876738;29;20044;-80
2024/01/09 10:16:54;;;;;;;5.90;2.67;;;-3.40;99.90;;;;;;4855431;29;20060;-74
2024/01/09 10:19:22;;;;;;;6.68;2.45;;;-3.30;99.90;;;;;;4848130;29;20133;-74
2024/01/09 10:21:48;;;;;;;6.25;2.85;;;-3.30;99.90;;;;;;4841480;29;20084;-76
2024/01/09 10:24:15;;;;;;;6.25;3.03;;;-3.20;99.90;;;;;;4858246;29;20084;-77
2024/01/09 10:26:41;;;;;;;5.60;2.40;;;-3.20;99.90;;;;;;4853937;29;20048;-78
2024/01/09 10:29:09;;;;;;;5.85;2.33;;;-3.10;99.90;;;;;;4870434;29;20305;-81
2024/01/09 10:31:34;;;;;;;8.73;2.75;;;-3.10;99.90;;;;;;4855393;29;20060;-79
2024/01/09 10:34:00;;;;;;;5.80;2.92;;;-3.10;99.90;;;;;;4844222;29;20045;-81
2024/01/09 10:36:27;;;;;;;5.78;2.63;;;-3.00;99.90;;;;;;4879078;29;20107;-80
2024/01/09 10:39:02;;;;;;;6.60;2.80;;;-2.90;99.90;;;;;;4850277;29;20048;-86
2024/01/09 10:41:28;;;;;;;5.85;2.42;;;-2.90;99.90;;;;;;4855533;29;20097;-85
2024/01/09 10:43:54;;;;;;;7.70;3.22;;;-2.80;99.90;;;;;;4858431;29;20040;-87
2024/01/09 10:46:26;;;;;;;6.20;2.80;;;-2.80;99.90;;;;;;4870428;29;20096;-83
2024/01/09 10:48:53;;;;;;;7.10;2.83;;;-2.70;99.90;;;;;;4870563;29;20045;-83
2024/01/09 10:51:20;;;;;;;6.38;3.15;;;-2.70;99.90;;;;;;4869353;29;20057;-77
2024/01/09 10:53:48;;;;;;;6.15;2.42;;;-2.60;99.90;;;;;;4870827;29;20053;-83
2024/01/09 10:56:18;;;;;;;5.15;2.55;;;-2.60;99.90;;;;;;4855100;29;20731;-77
2024/01/09 10:58:49;;;;;;;4.68;2.22;;;-2.50;99.90;;;;;;4854190;29;20052;-77
2024/01/09 11:01:15;;;;;;;7.57;2.80;;;-2.50;99.90;;;;;;4842402;29;20076;-82
2024/01/09 11:03:41;;;;;;;7.65;2.70;;;-2.40;99.90;;;;;;4860120;29;20061;-82
2024/01/09 11:06:08;;;;;;;4.88;2.60;;;-2.40;99.90;;;;;;4848374;29;20073;-80
2024/01/09 11:08:35;;;;;;;6.95;2.35;;;-2.30;99.90;;;;;;4845391;29;20782;-81
2024/01/09 11:11:04;;;;;;;5.75;2.22;;;-2.30;99.90;;;;;;4846557;29;20050;-80
2024/01/09 11:13:32;;;;;;;4.10;2.05;;;-2.20;99.90;;;;;;4835702;29;20055;-80
2024/01/09 11:15:59;;;;;;;7.00;2.13;;;-2.20;99.90;;;;;;4851329;29;20041;-79
2024/01/09 11:18:27;;;;;;;7.05;2.67;;;-2.10;99.90;;;;;;4868071;29;20099;-77
2024/01/09 11:21:02;;;;;;;6.30;2.35;;;-2.10;99.90;;;;;;4853675;29;20041;-77
2024/01/09 11:23:54;;;;;;;5.32;2.30;;;-2.00;99.90;;;;;;4869846;29;20977;-75
2024/01/09 11:26:20;;;;;;;4.93;2.20;;;-2.00;99.90;;;;;;4849335;29;20105;-77
2024/01/09 11:28:46;;;;;;;6.00;2.60;;;-2.00;99.90;;;;;;4866958;29;20056;-79
2024/01/09 11:31:20;;;;;;;9.90;2.28;;;-1.90;99.90;;;;;;4865642;29;20059;-77
2024/01/09 11:33:55;;;;;;;5.88;2.10;;;-1.80;99.90;;;;;;4845474;29;20053;-79
2024/01/09 11:36:22;;;;;;;5.68;2.42;;;-1.80;99.90;;;;;;4875483;29;20062;-74
2024/01/09 11:38:50;;;;;;;4.85;2.47;;;-1.70;99.90;;;;;;4830283;29;20098;-74
2024/01/09 11:41:16;;;;;;;5.50;2.45;;;-1.70;99.90;;;;;;4836156;29;20075;-77
2024/01/09 11:43:58;;;;;;;5.97;2.45;;;-1.60;99.90;;;;;;4835608;29;20058;-79
2024/01/09 11:46:24;;;;;;;3.75;2.05;;;-1.60;99.90;;;;;;4838686;29;20711;-76
2024/01/09 11:48:50;;;;;;;4.50;2.00;;;-1.60;99.90;;;;;;4833310;29;20061;-79
2024/01/09 11:51:17;;;;;;;3.63;1.90;;;-1.50;99.90;;;;;;4858472;29;20612;-81
2024/01/09 11:53:43;;;;;;;7.25;2.05;;;-1.50;99.90;;;;;;4868585;29;20081;-75
2024/01/09 11:56:12;;;;;;;6.65;2.70;;;-1.50;99.90;;;;;;4832355;29;20046;-76
2024/01/09 11:58:38;;;;;;;6.18;2.03;;;-1.50;99.90;;;;;;4833161;29;20046;-76
2024/01/09 12:01:05;;;;;;;6.55;2.13;;;-1.40;99.90;;;;;;4850594;29;20050;-73
2024/01/09 12:03:31;;;;;;;4.75;2.10;;;-1.40;99.90;;;;;;4828765;29;20042;-74
2024/01/09 12:05:56;;;;;;;4.93;1.88;;;-1.30;99.90;;;;;;4850958;29;20046;-78
2024/01/09 12:08:24;;;;;;;4.85;2.22;;;-1.30;99.90;;;;;;4827465;29;20084;-74
2024/01/09 12:10:50;;;;;;;4.97;1.90;;;-1.30;99.90;;;;;;4831776;29;20049;-74
2024/01/09 12:13:18;;;;;;;7.13;2.35;;;-1.20;99.90;;;;;;4822968;29;20475;-74
2024/01/09 12:15:44;;;;;;;5.07;2.20;;;-1.20;99.90;;;;;;4833856;29;20077;-74
2024/01/09 12:18:10;;;;;;;3.45;1.95;;;-1.20;99.90;;;;;;4824044;29;20483;-74
2024/01/09 12:20:35;;;;;;;4.85;2.08;;;-1.10;99.90;;;;;;4858488;29;20042;-76
2024/01/09 12:23:02;;;;;;;4.95;2.08;;;-1.10;99.90;;;;;;4823273;29;20099;-77
2024/01/09 12:25:28;;;;;;;3.97;2.25;;;-1.00;99.90;;;;;;4834366;29;20506;-81
2024/01/09 12:27:55;;;;;;;6.05;2.47;;;-1.00;99.90;;;;;;4822851;29;20118;-75
2024/01/09 12:30:22;;;;;;;4.57;2.22;;;-0.90;99.90;;;;;;4821832;29;20064;-76
2024/01/09 12:32:48;;;;;;;5.18;2.25;;;-0.90;99.90;;;;;;4828947;29;20050;-85
2024/01/09 12:35:14;;;;;;;6.05;2.28;;;-0.90;99.90;;;;;;4838990;29;20059;-76
2024/01/09 12:37:40;;;;;;;4.75;2.17;;;-0.80;99.90;;;;;;4845834;29;20505;-77
2024/01/09 12:40:09;;;;;;;4.15;2.17;;;-0.80;99.90;;;;;;4851896;29;20049;-75
2024/01/09 12:42:36;;;;;;;4.32;1.98;;;-0.80;99.90;;;;;;4887209;29;20060;-76
2024/01/09 12:45:02;;;;;;;3.60;2.00;;;-0.80;99.90;;;;;;4878479;29;20141;-76